createdAt,value
2019-05-13T00:00:34.158Z,75.56
2019-05-13T00:01:34.346Z,75.25
2019-05-13T00:02:34.430Z,75.15
2019-05-13T00:03:33.375Z,75.15
2019-05-13T00:04:33.670Z,75.35
2019-05-13T00:05:33.855Z,75.35
2019-05-13T00:06:34.126Z,75.15
2019-05-13T00:07:34.101Z,74.95
2019-05-13T00:08:33.823Z,74.84
2019-05-13T00:09:33.956Z,75.04
2019-05-13T00:10:34.818Z,74.95
2019-05-13T00:11:34.467Z,74.95
2019-05-13T00:12:31.971Z,74.84
2019-05-13T00:13:33.814Z,74.84
2019-05-13T00:14:34.288Z,74.95
2019-05-13T00:15:33.990Z,74.95
2019-05-13T00:16:34.162Z,74.95
2019-05-13T00:17:33.792Z,74.84
2019-05-13T00:18:33.889Z,74.84
2019-05-13T00:19:33.930Z,74.84
2019-05-13T00:20:33.834Z,75.15
2019-05-13T00:21:33.923Z,75.35
2019-05-13T00:22:33.883Z,75.46
2019-05-13T00:23:33.873Z,75.46
2019-05-13T00:24:33.961Z,75.25
2019-05-13T00:25:34.037Z,75.15
2019-05-13T00:26:33.756Z,75.25
2019-05-13T00:27:33.748Z,75.25
2019-05-13T00:28:33.988Z,75.04
2019-05-13T00:29:33.878Z,75.04
2019-05-13T00:30:34.099Z,75.15
2019-05-13T00:31:33.545Z,75.04
2019-05-13T00:32:33.678Z,74.74
2019-05-13T00:33:33.919Z,74.53
2019-05-13T00:34:33.817Z,75.04
2019-05-13T00:35:33.832Z,74.95
2019-05-13T00:36:33.773Z,75.15
2019-05-13T00:37:33.362Z,75.35
2019-05-13T00:38:33.555Z,75.46
2019-05-13T00:39:33.714Z,75.15
2019-05-13T00:40:33.878Z,74.84
2019-05-13T00:41:33.705Z,74.84
2019-05-13T00:42:33.412Z,74.74
2019-05-13T00:43:33.909Z,74.33
2019-05-13T00:44:33.842Z,74.43
2019-05-13T00:45:33.994Z,74.63
2019-05-13T00:46:33.856Z,74.33
2019-05-13T00:47:31.604Z,74.12
2019-05-13T00:48:33.465Z,74.02
2019-05-13T00:49:31.574Z,74.02
2019-05-13T00:50:33.524Z,73.91
2019-05-13T00:51:33.723Z,73.81
2019-05-13T00:52:33.764Z,73.71
2019-05-13T00:53:31.533Z,73.61
2019-05-13T00:54:31.532Z,73.81
2019-05-13T00:55:31.521Z,73.81
2019-05-13T00:56:31.510Z,74.02
2019-05-13T00:57:31.490Z,73.91
2019-05-13T00:58:33.537Z,73.81
2019-05-13T00:59:33.627Z,73.91
2019-05-13T01:00:33.300Z,74.02
2019-05-13T01:01:33.425Z,74.33
2019-05-13T01:02:33.327Z,74.43
2019-05-13T01:03:33.632Z,74.98
2019-05-13T01:04:33.689Z,75.49
2019-05-13T01:05:33.739Z,76.01
2019-05-13T01:06:31.397Z,76.42
2019-05-13T01:07:34.003Z,76.31
2019-05-13T01:08:33.710Z,76.52
2019-05-13T01:09:31.358Z,76.45
2019-05-13T01:10:31.356Z,76.45
2019-05-13T01:11:31.336Z,76.56
2019-05-13T01:12:31.328Z,76.76
2019-05-13T01:13:31.328Z,76.86
2019-05-13T01:14:31.315Z,77.17
2019-05-13T01:15:31.303Z,76.97
2019-05-13T01:16:33.933Z,76.97
2019-05-13T01:17:33.683Z,76.76
2019-05-13T01:18:31.273Z,76.97
2019-05-13T01:19:31.258Z,77.38
2019-05-13T01:20:31.257Z,77.38
2019-05-13T01:21:31.242Z,77.28
2019-05-13T01:22:31.220Z,77.17
2019-05-13T01:23:31.212Z,77.38
2019-05-13T01:24:32.995Z,77.38
2019-05-13T01:25:33.518Z,77.42
2019-05-13T01:26:33.356Z,77.42
2019-05-13T01:27:32.914Z,77.62
2019-05-13T01:28:31.159Z,77.62
2019-05-13T01:29:31.158Z,78.44
2019-05-13T01:30:31.141Z,79.27
2019-05-13T01:31:31.138Z,79.27
2019-05-13T01:32:31.128Z,78.86
2019-05-13T01:33:31.097Z,78.75
2019-05-13T01:34:31.097Z,78.24
2019-05-13T01:35:31.097Z,78.34
2019-05-13T01:36:31.075Z,78.75
2019-05-13T01:37:39.908Z,79.27
2019-05-13T01:38:33.964Z,79.47
2019-05-13T01:39:31.045Z,78.86
2019-05-13T01:40:31.035Z,78.96
2019-05-13T01:41:32.860Z,78.75
2019-05-13T01:42:33.527Z,78.55
2019-05-13T01:43:33.410Z,78.65
2019-05-13T01:44:32.973Z,78.86
2019-05-13T01:45:33.483Z,79.16
2019-05-13T01:46:30.970Z,79.06
2019-05-13T01:47:30.951Z,79.06
2019-05-13T01:48:33.165Z,79.06
2019-05-13T01:49:33.452Z,79.06
2019-05-13T01:50:30.920Z,79.00
2019-05-13T01:51:33.271Z,78.86
2019-05-13T01:52:30.898Z,79.00
2019-05-13T01:53:30.889Z,78.79
2019-05-13T01:54:30.876Z,78.48
2019-05-13T01:55:30.874Z,78.48
2019-05-13T01:56:30.856Z,78.48
2019-05-13T01:57:30.855Z,78.48
2019-05-13T01:58:30.844Z,78.69
2019-05-13T01:59:30.824Z,78.58
2019-05-13T02:00:30.822Z,78.48
2019-05-13T02:01:30.813Z,78.89
2019-05-13T02:02:30.791Z,78.79
2019-05-13T02:03:30.773Z,78.38
2019-05-13T02:04:30.762Z,78.17
2019-05-13T02:05:30.752Z,77.76
2019-05-13T02:06:30.767Z,77.45
2019-05-13T02:07:30.742Z,77.35
2019-05-13T02:08:30.742Z,77.25
2019-05-13T02:09:30.722Z,77.45
2019-05-13T02:10:30.808Z,77.35
2019-05-13T02:11:30.716Z,77.76
2019-05-13T02:12:30.687Z,77.86
2019-05-13T02:13:30.678Z,78.28
2019-05-13T02:14:30.728Z,77.97
2019-05-13T02:15:30.668Z,77.76
2019-05-13T02:16:30.660Z,77.86
2019-05-13T02:17:30.625Z,78.17
2019-05-13T02:18:30.625Z,77.76
2019-05-13T02:19:30.616Z,77.66
2019-05-13T02:20:30.605Z,77.66
2019-05-13T02:21:30.585Z,78.17
2019-05-13T02:22:30.575Z,78.07
2019-05-13T02:23:30.563Z,77.86
2019-05-13T02:24:30.553Z,77.86
2019-05-13T02:25:30.560Z,77.86
2019-05-13T02:26:30.532Z,77.90
2019-05-13T02:27:30.525Z,77.69
2019-05-13T02:28:30.509Z,77.90
2019-05-13T02:29:30.529Z,78.11
2019-05-13T02:30:30.494Z,78.21
2019-05-13T02:31:41.539Z,78.41
2019-05-13T02:32:32.891Z,78.11
2019-05-13T02:33:33.583Z,78.00
2019-05-13T02:34:32.142Z,78.52
2019-05-13T02:35:32.496Z,78.41
2019-05-13T02:36:33.053Z,78.41
2019-05-13T02:37:34.125Z,78.41
2019-05-13T02:38:34.829Z,78.72
2019-05-13T02:39:32.931Z,79.03
2019-05-13T02:40:32.629Z,79.34
2019-05-13T02:41:33.877Z,79.14
2019-05-13T02:42:32.803Z,79.03
2019-05-13T02:43:33.346Z,79.34
2019-05-13T02:44:33.258Z,79.44
2019-05-13T02:45:33.234Z,79.44
2019-05-13T02:46:33.427Z,79.55
2019-05-13T02:47:33.031Z,79.55
2019-05-13T02:48:32.633Z,79.65
2019-05-13T02:49:32.465Z,79.58
2019-05-13T02:50:33.528Z,79.58
2019-05-13T02:51:32.701Z,80.00
2019-05-13T02:52:33.443Z,79.38
2019-05-13T02:53:33.264Z,79.24
2019-05-13T02:54:33.709Z,79.24
2019-05-13T02:55:32.918Z,79.24
2019-05-13T02:56:32.812Z,79.44
2019-05-13T02:57:32.757Z,79.14
2019-05-13T02:58:32.966Z,79.24
2019-05-13T02:59:33.321Z,79.24
2019-05-13T03:00:32.864Z,79.34
2019-05-13T03:01:33.113Z,79.65
2019-05-13T03:02:32.805Z,79.69
2019-05-13T03:03:32.734Z,79.90
2019-05-13T03:04:32.553Z,79.90
2019-05-13T03:05:32.068Z,80.10
2019-05-13T03:06:33.223Z,80.20
2019-05-13T03:07:33.091Z,80.20
2019-05-13T03:08:41.036Z,80.20
2019-05-13T03:09:32.552Z,80.10
2019-05-13T03:10:32.917Z,80.41
2019-05-13T03:11:32.888Z,80.72
2019-05-13T03:12:32.266Z,81.03
2019-05-13T03:13:32.740Z,80.82
2019-05-13T03:14:32.378Z,80.72
2019-05-13T03:15:32.683Z,80.72
2019-05-13T03:16:32.492Z,80.72
2019-05-13T03:17:32.631Z,80.72
2019-05-13T03:18:33.072Z,80.72
2019-05-13T03:19:32.988Z,80.72
2019-05-13T03:20:33.045Z,80.41
2019-05-13T03:21:32.640Z,80.82
2019-05-13T03:22:32.636Z,80.41
2019-05-13T03:23:32.706Z,80.41
2019-05-13T03:24:32.940Z,80.62
2019-05-13T03:25:33.104Z,80.30
2019-05-13T03:26:32.181Z,80.30
2019-05-13T03:27:33.325Z,80.30
2019-05-13T03:28:33.171Z,80.30
2019-05-13T03:29:32.746Z,80.82
2019-05-13T03:30:34.659Z,80.62
2019-05-13T03:31:35.757Z,80.51
2019-05-13T03:32:41.936Z,80.62
2019-05-13T03:33:35.937Z,80.82
2019-05-13T03:34:36.070Z,80.72
2019-05-13T03:35:36.262Z,81.44
2019-05-13T03:36:35.735Z,81.44
2019-05-13T03:37:34.526Z,81.13
2019-05-13T03:38:32.627Z,81.09
2019-05-13T03:39:33.001Z,80.82
2019-05-13T03:40:32.811Z,80.51
2019-05-13T03:41:32.714Z,80.58
2019-05-13T03:42:33.246Z,80.68
2019-05-13T03:43:32.511Z,80.41
2019-05-13T03:44:32.554Z,80.62
2019-05-13T03:45:32.447Z,80.72
2019-05-13T03:46:33.166Z,80.62
2019-05-13T03:47:32.745Z,80.82
2019-05-13T03:48:29.655Z,80.51
2019-05-13T03:49:32.509Z,80.72
2019-05-13T03:50:33.442Z,80.82
2019-05-13T03:51:32.561Z,80.51
2019-05-13T03:52:33.297Z,80.93
2019-05-13T03:53:32.284Z,81.13
2019-05-13T03:54:32.525Z,81.13
2019-05-13T03:55:32.554Z,81.13
2019-05-13T03:56:32.590Z,81.13
2019-05-13T03:57:33.399Z,81.23
2019-05-13T03:58:32.361Z,81.23
2019-05-13T03:59:32.915Z,81.44
2019-05-13T04:00:32.311Z,81.65
2019-05-13T04:01:32.251Z,81.44
2019-05-13T04:02:32.380Z,81.03
2019-05-13T04:03:32.871Z,80.30
2019-05-13T04:04:32.366Z,80.10
2019-05-13T04:05:33.124Z,79.75
2019-05-13T04:06:32.112Z,79.44
2019-05-13T04:07:32.396Z,79.03
2019-05-13T04:08:31.906Z,78.72
2019-05-13T04:09:32.555Z,78.83
2019-05-13T04:10:33.153Z,78.41
2019-05-13T04:11:32.822Z,78.31
2019-05-13T04:12:30.242Z,78.72
2019-05-13T04:13:29.392Z,78.93
2019-05-13T04:14:29.409Z,79.14
2019-05-13T04:15:31.851Z,79.03
2019-05-13T04:16:32.079Z,78.72
2019-05-13T04:17:31.996Z,79.34
2019-05-13T04:18:31.805Z,79.55
2019-05-13T04:19:29.333Z,79.24
2019-05-13T04:20:29.322Z,78.72
2019-05-13T04:21:29.311Z,78.72
2019-05-13T04:22:29.309Z,78.93
2019-05-13T04:23:32.042Z,79.03
2019-05-13T04:24:29.288Z,79.14
2019-05-13T04:25:32.055Z,79.34
2019-05-13T04:26:32.107Z,79.75
2019-05-13T04:27:32.387Z,79.65
2019-05-13T04:28:32.687Z,79.14
2019-05-13T04:29:32.446Z,79.44
2019-05-13T04:30:32.738Z,79.03
2019-05-13T04:31:29.203Z,79.24
2019-05-13T04:32:33.337Z,79.03
2019-05-13T04:33:29.176Z,79.03
2019-05-13T04:34:29.165Z,79.44
2019-05-13T04:35:29.166Z,79.14
2019-05-13T04:36:31.840Z,79.14
2019-05-13T04:37:32.619Z,79.24
2019-05-13T04:38:29.126Z,79.14
2019-05-13T04:39:41.834Z,79.65
2019-05-13T04:40:32.965Z,79.44
2019-05-13T04:41:29.091Z,79.24
2019-05-13T04:42:29.079Z,79.24
2019-05-13T04:43:33.713Z,79.44
2019-05-13T04:44:32.380Z,79.24
2019-05-13T04:45:32.618Z,79.24
2019-05-13T04:46:32.516Z,79.34
2019-05-13T04:47:29.022Z,79.44
2019-05-13T04:48:29.018Z,79.34
2019-05-13T04:49:32.282Z,79.34
2019-05-13T04:50:28.995Z,79.65
2019-05-13T04:51:28.980Z,79.61
2019-05-13T04:52:28.976Z,79.41
2019-05-13T04:53:28.965Z,79.10
2019-05-13T04:54:28.956Z,79.00
2019-05-13T04:55:28.943Z,78.89
2019-05-13T04:56:28.926Z,78.65
2019-05-13T04:57:28.926Z,78.44
2019-05-13T04:58:31.925Z,78.10
2019-05-13T04:59:28.904Z,77.86
2019-05-13T05:00:32.158Z,77.45
2019-05-13T05:01:32.201Z,76.52
2019-05-13T05:02:38.381Z,76.66
2019-05-13T05:03:40.491Z,76.76
2019-05-13T05:04:33.939Z,76.76
2019-05-13T05:05:28.831Z,76.66
2019-05-13T05:06:28.839Z,76.97
2019-05-13T05:07:28.807Z,76.45
2019-05-13T05:08:28.797Z,76.11
2019-05-13T05:09:28.787Z,75.76
2019-05-13T05:10:37.373Z,74.98
2019-05-13T05:11:32.202Z,72.72
2019-05-13T05:12:28.754Z,69.89
2019-05-13T05:13:28.747Z,67.46
2019-05-13T05:14:28.745Z,65.94
2019-05-13T05:15:28.739Z,63.35
2019-05-13T05:16:28.714Z,63.48
2019-05-13T05:17:28.704Z,65.59
2019-05-13T05:18:28.695Z,66.24
2019-05-13T05:19:31.287Z,66.78
2019-05-13T05:20:28.682Z,67.94
2019-05-13T05:21:28.668Z,68.65
2019-05-13T05:22:28.651Z,67.70
2019-05-13T05:23:28.642Z,66.57
2019-05-13T05:24:28.630Z,66.44
2019-05-13T05:25:29.291Z,66.54
2019-05-13T05:26:28.600Z,66.98
2019-05-13T05:27:28.619Z,67.19
2019-05-13T05:28:28.588Z,67.43
2019-05-13T05:29:28.580Z,68.24
2019-05-13T05:30:28.559Z,68.45
2019-05-13T05:31:28.546Z,67.29
2019-05-13T05:32:28.559Z,66.88
2019-05-13T05:33:28.543Z,66.78
2019-05-13T05:34:28.525Z,66.57
2019-05-13T05:35:28.506Z,66.57
2019-05-13T05:36:28.496Z,65.72
2019-05-13T05:37:28.495Z,65.05
2019-05-13T05:38:28.494Z,64.10
2019-05-13T05:39:28.468Z,63.48
2019-05-13T05:40:31.732Z,63.69
2019-05-13T05:41:31.596Z,64.10
2019-05-13T05:42:28.447Z,63.22
2019-05-13T05:43:28.417Z,64.00
2019-05-13T05:44:28.418Z,62.76
2019-05-13T05:45:28.402Z,60.63
2019-05-13T05:46:28.393Z,57.49
2019-05-13T05:47:28.392Z,55.30
2019-05-13T05:48:28.366Z,54.46
2019-05-13T05:49:28.351Z,53.60
2019-05-13T05:50:28.341Z,52.13
2019-05-13T05:51:28.352Z,50.61
2019-05-13T05:52:28.330Z,47.14
2019-05-13T05:53:28.309Z,44.93
2019-05-13T05:54:28.307Z,41.99
2019-05-13T05:55:28.290Z,39.51
2019-05-13T05:56:28.278Z,38.05
2019-05-13T05:57:28.280Z,36.76
2019-05-13T05:58:28.267Z,37.82
2019-05-13T05:59:28.249Z,37.48
2019-05-13T06:00:28.241Z,36.96
2019-05-13T06:01:28.230Z,37.59
2019-05-13T06:02:28.221Z,37.18
2019-05-13T06:03:28.227Z,36.23
2019-05-13T06:04:28.190Z,35.60
2019-05-13T06:05:28.177Z,34.38
2019-05-13T06:06:28.194Z,34.26
2019-05-13T06:07:28.177Z,33.75
2019-05-13T06:08:28.156Z,33.13
2019-05-13T06:09:28.154Z,33.54
2019-05-13T06:10:42.655Z,34.36
2019-05-13T06:11:31.095Z,34.80
2019-05-13T06:12:28.142Z,36.60
2019-05-13T06:13:28.107Z,39.10
2019-05-13T06:14:28.089Z,41.29
2019-05-13T06:15:28.086Z,42.96
2019-05-13T06:16:28.065Z,44.09
2019-05-13T06:17:28.082Z,45.12
2019-05-13T06:18:28.064Z,46.48
2019-05-13T06:19:28.037Z,47.41
2019-05-13T06:20:28.053Z,48.14
2019-05-13T06:21:28.013Z,48.57
2019-05-13T06:22:28.003Z,48.18
2019-05-13T06:23:27.984Z,48.49
2019-05-13T06:24:28.016Z,48.85
2019-05-13T06:25:27.977Z,48.02
2019-05-13T06:26:27.962Z,45.48
2019-05-13T06:27:27.954Z,42.47
2019-05-13T06:28:27.961Z,40.99
2019-05-13T06:29:27.926Z,38.60
2019-05-13T06:30:27.914Z,36.73
2019-05-13T06:31:27.902Z,35.60
2019-05-13T06:32:27.893Z,34.05
2019-05-13T06:33:27.884Z,33.42
2019-05-13T06:34:27.960Z,32.50
2019-05-13T06:35:27.870Z,31.73
2019-05-13T06:36:27.850Z,33.04
2019-05-13T06:37:27.841Z,32.40
2019-05-13T06:38:27.840Z,31.69
2019-05-13T06:39:27.819Z,31.79
2019-05-13T06:40:27.809Z,30.79
2019-05-13T06:41:27.798Z,33.21
2019-05-13T06:42:27.880Z,37.74
2019-05-13T06:43:27.781Z,47.24
2019-05-13T06:44:27.768Z,46.60
2019-05-13T06:45:27.757Z,41.45
2019-05-13T06:46:27.748Z,37.80
2019-05-13T06:47:27.781Z,37.54
2019-05-13T06:48:27.726Z,43.06
2019-05-13T06:49:27.706Z,41.99
2019-05-13T06:50:27.726Z,38.16
2019-05-13T06:51:27.706Z,35.75
2019-05-13T06:52:27.711Z,34.55
2019-05-13T06:53:27.685Z,34.08
2019-05-13T06:54:27.657Z,33.38
2019-05-13T06:55:27.645Z,33.12
2019-05-13T06:56:27.646Z,31.57
2019-05-13T06:57:27.645Z,30.45
2019-05-13T06:58:27.624Z,30.42
2019-05-13T06:59:27.604Z,30.07
2019-05-13T07:00:28.117Z,29.37
2019-05-13T07:01:27.587Z,29.75
2019-05-13T07:02:27.585Z,30.62
2019-05-13T07:03:27.571Z,32.56
2019-05-13T07:04:27.554Z,32.30
2019-05-13T07:05:27.546Z,31.70
2019-05-13T07:06:27.587Z,30.45
2019-05-13T07:07:27.543Z,28.81
2019-05-13T07:08:27.516Z,29.03
2019-05-13T07:09:27.566Z,32.29
2019-05-13T07:10:27.498Z,35.30
2019-05-13T07:11:27.542Z,36.50
2019-05-13T07:12:27.484Z,34.41
2019-05-13T07:13:27.472Z,32.53
2019-05-13T07:14:27.454Z,32.93
2019-05-13T07:15:27.440Z,33.73
2019-05-13T07:16:27.433Z,33.11
2019-05-13T07:17:27.422Z,32.88
2019-05-13T07:18:27.422Z,32.00
2019-05-13T07:19:27.402Z,30.65
2019-05-13T07:20:28.221Z,29.33
2019-05-13T07:21:27.381Z,29.43
2019-05-13T07:22:27.371Z,33.64
2019-05-13T07:23:27.361Z,34.00
2019-05-13T07:24:27.353Z,33.66
2019-05-13T07:25:27.334Z,31.27
2019-05-13T07:26:27.330Z,30.24
2019-05-13T07:27:27.463Z,28.99
2019-05-13T07:28:27.300Z,27.77
2019-05-13T07:29:27.300Z,26.74
2019-05-13T07:30:27.299Z,28.99
2019-05-13T07:31:27.269Z,33.86
2019-05-13T07:32:27.269Z,33.89
2019-05-13T07:33:27.307Z,34.56
2019-05-13T07:34:27.248Z,36.83
2019-05-13T07:35:30.725Z,36.05
2019-05-13T07:36:28.219Z,33.33
2019-05-13T07:37:27.219Z,32.02
2019-05-13T07:38:27.198Z,32.45
2019-05-13T07:39:27.228Z,30.86
2019-05-13T07:40:27.200Z,28.93
2019-05-13T07:41:36.526Z,29.21
2019-05-13T07:42:28.158Z,29.47
2019-05-13T07:43:27.198Z,31.72
2019-05-13T07:44:27.177Z,31.32
2019-05-13T07:45:27.137Z,31.97
2019-05-13T07:46:27.125Z,30.32
2019-05-13T07:47:27.116Z,27.70
2019-05-13T07:48:27.959Z,26.10
2019-05-13T07:49:27.086Z,27.25
2019-05-13T07:50:27.117Z,27.56
2019-05-13T07:51:27.066Z,29.71
2019-05-13T07:52:27.103Z,30.35
2019-05-13T07:53:27.064Z,33.51
2019-05-13T07:54:27.036Z,34.54
2019-05-13T07:55:27.036Z,37.60
2019-05-13T07:56:27.005Z,43.29
2019-05-13T07:57:27.005Z,39.48
2019-05-13T07:58:27.012Z,39.87
2019-05-13T07:59:27.890Z,42.86
2019-05-13T08:00:26.975Z,46.17
2019-05-13T08:01:26.996Z,50.22
2019-05-13T08:02:26.973Z,50.06
2019-05-13T08:03:26.948Z,51.41
2019-05-13T08:04:27.483Z,51.48
2019-05-13T08:05:26.923Z,46.59
2019-05-13T08:06:26.914Z,45.21
2019-05-13T08:07:27.016Z,45.66
2019-05-13T08:08:26.921Z,46.80
2019-05-13T08:09:26.990Z,45.00
2019-05-13T08:10:26.863Z,38.42
2019-05-13T08:11:26.865Z,35.31
2019-05-13T08:12:26.842Z,35.60
2019-05-13T08:13:26.852Z,32.82
2019-05-13T08:14:26.896Z,32.27
2019-05-13T08:15:26.813Z,36.50
2019-05-13T08:16:26.819Z,36.33
2019-05-13T08:17:26.802Z,35.23
2019-05-13T08:18:28.351Z,32.32
2019-05-13T08:19:26.800Z,31.28
2019-05-13T08:21:42.528Z,28.76
2019-05-13T08:22:42.669Z,27.86
2019-05-13T08:23:42.506Z,27.86
2019-05-13T08:24:42.766Z,27.12
2019-05-13T08:25:42.695Z,26.31
2019-05-13T08:26:45.126Z,25.52
2019-05-13T08:27:43.466Z,26.45
2019-05-13T08:28:57.037Z,27.26
2019-05-13T08:29:43.445Z,27.14
2019-05-13T08:30:42.981Z,26.93
2019-05-13T08:31:42.425Z,27.44
2019-05-13T08:32:43.045Z,28.33
2019-05-13T08:33:42.564Z,30.68
2019-05-13T08:34:42.404Z,34.16
2019-05-13T08:35:47.203Z,35.86
2019-05-13T08:36:43.402Z,34.42
2019-05-13T08:37:42.959Z,31.94
2019-05-13T08:38:43.207Z,33.25
2019-05-13T08:39:42.424Z,34.67
2019-05-13T08:40:42.626Z,35.10
2019-05-13T08:41:42.533Z,34.51
2019-05-13T08:42:42.956Z,36.52
2019-05-13T08:43:42.304Z,37.76
2019-05-13T08:44:42.350Z,37.06
2019-05-13T08:45:43.054Z,39.04
2019-05-13T08:46:42.281Z,41.63
2019-05-13T08:47:42.262Z,39.98
2019-05-13T08:48:42.898Z,34.39
2019-05-13T08:49:42.302Z,33.02
2019-05-13T08:50:42.234Z,33.19
2019-05-13T08:51:42.511Z,31.93
2019-05-13T08:52:42.459Z,30.65
2019-05-13T08:53:42.528Z,28.11
2019-05-13T08:54:42.194Z,26.69
2019-05-13T08:55:42.865Z,25.79
2019-05-13T08:56:42.171Z,26.84
2019-05-13T08:57:42.166Z,27.53
2019-05-13T08:58:42.141Z,27.84
2019-05-13T08:59:42.462Z,27.72
2019-05-13T09:00:42.143Z,27.23
2019-05-13T09:01:42.881Z,33.01
2019-05-13T09:02:42.227Z,37.97
2019-05-13T09:03:42.102Z,36.15
2019-05-13T09:04:42.447Z,35.01
2019-05-13T09:05:42.086Z,33.79
2019-05-13T09:06:42.108Z,31.51
2019-05-13T09:07:42.069Z,30.58
2019-05-13T09:08:42.580Z,30.15
2019-05-13T09:09:42.211Z,31.71
2019-05-13T09:10:42.585Z,32.20
2019-05-13T09:11:42.358Z,32.35
2019-05-13T09:12:43.332Z,31.40
2019-05-13T09:13:42.421Z,32.59
2019-05-13T09:14:41.980Z,31.73
2019-05-13T09:15:42.296Z,31.52
2019-05-13T09:16:42.080Z,32.03
2019-05-13T09:17:42.566Z,36.84
2019-05-13T09:18:42.707Z,40.89
2019-05-13T09:19:41.917Z,43.29
2019-05-13T09:20:41.908Z,45.64
2019-05-13T09:21:42.480Z,44.95
2019-05-13T09:22:41.906Z,46.09
2019-05-13T09:23:41.886Z,47.38
2019-05-13T09:24:42.614Z,46.86
2019-05-13T09:25:41.856Z,47.06
2019-05-13T09:26:42.191Z,47.94
2019-05-13T09:27:42.506Z,48.97
2019-05-13T09:28:41.891Z,50.42
2019-05-13T09:29:42.730Z,51.81
2019-05-13T09:30:42.506Z,54.18
2019-05-13T09:31:41.808Z,55.10
2019-05-13T09:32:42.553Z,55.41
2019-05-13T09:33:41.907Z,55.61
2019-05-13T09:34:42.334Z,55.61
2019-05-13T09:35:42.345Z,55.41
2019-05-13T09:36:41.987Z,56.20
2019-05-13T09:37:42.465Z,54.94
2019-05-13T09:38:41.970Z,55.15
2019-05-13T09:39:41.712Z,55.18
2019-05-13T09:40:42.365Z,55.41
2019-05-13T09:41:44.478Z,55.48
2019-05-13T09:42:49.253Z,55.05
2019-05-13T09:43:42.669Z,54.72
2019-05-13T09:44:42.075Z,55.22
2019-05-13T09:45:42.349Z,54.31
2019-05-13T09:46:42.506Z,54.82
2019-05-13T09:47:42.338Z,54.03
2019-05-13T09:48:42.421Z,55.05
2019-05-13T09:49:42.157Z,55.35
2019-05-13T09:50:42.526Z,55.30
2019-05-13T09:51:41.807Z,56.22
2019-05-13T09:52:42.835Z,56.02
2019-05-13T09:53:41.742Z,57.34
2019-05-13T09:54:42.470Z,56.24
2019-05-13T09:55:41.673Z,57.06
2019-05-13T09:56:41.534Z,56.15
2019-05-13T09:57:41.647Z,56.88
2019-05-13T09:58:42.190Z,57.87
2019-05-13T09:59:42.351Z,57.24
2019-05-13T10:00:42.186Z,54.77
2019-05-13T10:01:43.237Z,54.85
2019-05-13T10:02:42.660Z,55.12
2019-05-13T10:03:53.771Z,53.75
2019-05-13T10:04:43.647Z,55.02
2019-05-13T10:05:41.442Z,56.76
2019-05-13T10:06:42.252Z,57.29
2019-05-13T10:07:42.470Z,57.50
2019-05-13T10:08:41.882Z,58.41
2019-05-13T10:09:42.980Z,58.08
2019-05-13T10:10:42.363Z,57.29
2019-05-13T10:11:41.378Z,59.05
2019-05-13T10:12:42.557Z,58.92
2019-05-13T10:13:41.369Z,59.03
2019-05-13T10:14:41.339Z,57.19
2019-05-13T10:15:42.024Z,57.19
2019-05-13T10:16:42.555Z,57.60
2019-05-13T10:17:42.802Z,57.29
2019-05-13T10:18:41.956Z,57.70
2019-05-13T10:19:41.978Z,57.70
2019-05-13T10:20:42.054Z,57.19
2019-05-13T10:21:42.004Z,57.78
2019-05-13T10:22:41.916Z,58.28
2019-05-13T10:23:41.918Z,58.51
2019-05-13T10:24:42.357Z,60.25
2019-05-13T10:25:41.227Z,59.71
2019-05-13T10:26:42.943Z,58.39
2019-05-13T10:27:41.867Z,56.24
2019-05-13T10:28:42.686Z,56.48
2019-05-13T10:29:42.513Z,57.09
2019-05-13T10:30:43.723Z,58.62
2019-05-13T10:31:42.036Z,57.67
2019-05-13T10:32:42.505Z,58.08
2019-05-13T10:33:42.030Z,58.39
2019-05-13T10:34:42.557Z,58.67
2019-05-13T10:35:42.903Z,57.44
2019-05-13T10:36:42.034Z,57.47
2019-05-13T10:37:41.783Z,58.03
2019-05-13T10:38:41.585Z,58.85
2019-05-13T10:39:41.079Z,59.64
2019-05-13T10:40:43.290Z,59.30
2019-05-13T10:41:42.270Z,58.15
2019-05-13T10:42:43.210Z,56.42
2019-05-13T10:43:44.202Z,57.54
2019-05-13T10:44:42.199Z,58.44
2019-05-13T10:45:41.652Z,56.98
2019-05-13T10:46:42.632Z,57.16
2019-05-13T10:47:42.283Z,55.66
2019-05-13T10:48:41.686Z,56.29
2019-05-13T10:49:42.530Z,57.79
2019-05-13T10:50:41.862Z,58.30
2019-05-13T10:51:41.820Z,56.04
2019-05-13T10:52:42.690Z,55.71
2019-05-13T10:53:42.693Z,55.71
2019-05-13T10:54:41.556Z,55.02
2019-05-13T10:55:42.221Z,55.83
2019-05-13T10:56:43.083Z,55.40
2019-05-13T10:57:42.393Z,55.81
2019-05-13T10:58:42.584Z,53.37
2019-05-13T10:59:40.869Z,56.21
2019-05-13T11:00:42.340Z,54.97
2019-05-13T11:01:42.606Z,53.96
2019-05-13T11:02:42.305Z,52.84
2019-05-13T11:03:42.745Z,52.30
2019-05-13T11:04:41.800Z,52.30
2019-05-13T11:05:44.010Z,52.81
2019-05-13T11:06:41.641Z,54.39
2019-05-13T11:07:42.118Z,52.28
2019-05-13T11:08:42.305Z,55.53
2019-05-13T11:09:41.742Z,55.63
2019-05-13T11:10:42.097Z,55.10
2019-05-13T11:11:41.388Z,55.00
2019-05-13T11:12:41.843Z,55.10
2019-05-13T11:13:52.200Z,54.08
2019-05-13T11:14:42.201Z,54.11
2019-05-13T11:16:42.602Z,54.64
2019-05-13T11:17:42.646Z,54.94
2019-05-13T11:18:41.274Z,55.35
2019-05-13T11:19:40.644Z,56.20
2019-05-13T11:20:41.916Z,56.20
2019-05-13T11:21:43.416Z,57.21
2019-05-13T11:22:40.623Z,55.99
2019-05-13T11:23:40.602Z,56.02
2019-05-13T11:24:43.229Z,55.81
2019-05-13T11:25:41.622Z,56.32
2019-05-13T11:26:41.813Z,57.54
2019-05-13T11:27:42.195Z,56.12
2019-05-13T11:28:42.930Z,56.70
2019-05-13T11:29:41.459Z,56.93
2019-05-13T11:30:42.338Z,57.62
2019-05-13T11:31:42.732Z,57.65
2019-05-13T11:32:42.614Z,56.63
2019-05-13T11:33:42.488Z,57.92
2019-05-13T11:34:41.925Z,55.41
2019-05-13T11:35:41.426Z,56.22
2019-05-13T11:36:43.133Z,56.42
2019-05-13T11:37:43.047Z,56.29
2019-05-13T11:38:43.097Z,56.09
2019-05-13T11:39:42.813Z,56.81
2019-05-13T11:40:40.417Z,55.66
2019-05-13T11:41:42.743Z,53.63
2019-05-13T11:42:42.204Z,54.26
2019-05-13T11:43:41.437Z,55.18
2019-05-13T11:44:42.904Z,56.22
2019-05-13T11:45:42.068Z,55.74
2019-05-13T11:46:42.673Z,55.33
2019-05-13T11:47:41.446Z,56.12
2019-05-13T11:48:42.593Z,55.81
2019-05-13T11:49:42.517Z,55.61
2019-05-13T11:50:42.423Z,54.79
2019-05-13T11:51:42.563Z,55.20
2019-05-13T11:52:42.443Z,56.40
2019-05-13T11:53:41.672Z,55.55
2019-05-13T11:54:42.508Z,54.33
2019-05-13T11:55:42.420Z,55.66
2019-05-13T11:56:48.904Z,53.96
2019-05-13T11:57:44.416Z,55.15
2019-05-13T11:58:43.064Z,53.85
2019-05-13T11:59:42.928Z,54.54
2019-05-13T12:00:42.655Z,53.44
2019-05-13T12:01:42.690Z,54.28
2019-05-13T12:02:42.583Z,55.41
2019-05-13T12:03:43.448Z,55.99
2019-05-13T12:04:42.993Z,54.57
2019-05-13T12:05:42.136Z,54.16
2019-05-13T12:06:48.615Z,53.34
2019-05-13T12:07:42.044Z,53.96
2019-05-13T12:08:45.141Z,54.94
2019-05-13T12:09:41.105Z,54.54
2019-05-13T12:10:43.755Z,53.70
2019-05-13T12:11:40.089Z,53.09
2019-05-13T12:12:43.304Z,52.37
2019-05-13T12:13:42.444Z,53.90
2019-05-13T12:14:56.824Z,52.68
2019-05-13T12:15:46.741Z,53.67
2019-05-13T12:16:42.323Z,52.96
2019-05-13T12:17:42.789Z,51.92
2019-05-13T12:18:43.643Z,52.12
2019-05-13T12:19:41.835Z,51.62
2019-05-13T12:20:42.703Z,50.27
2019-05-13T12:21:43.244Z,48.55
2019-05-13T12:22:42.634Z,49.28
2019-05-13T12:23:42.327Z,49.79
2019-05-13T12:24:42.235Z,50.40
2019-05-13T12:25:42.899Z,49.71
2019-05-13T12:26:43.091Z,49.63
2019-05-13T12:27:41.924Z,50.65
2019-05-13T12:28:42.106Z,50.42
2019-05-13T12:29:42.758Z,49.63
2019-05-13T12:30:41.793Z,51.16
2019-05-13T12:31:41.086Z,51.23
2019-05-13T12:32:42.812Z,51.21
2019-05-13T12:33:43.811Z,49.79
2019-05-13T12:34:44.942Z,49.99
2019-05-13T12:35:40.846Z,48.97
2019-05-13T12:36:42.929Z,49.40
2019-05-13T12:37:42.133Z,49.61
2019-05-13T12:38:43.994Z,49.22
2019-05-13T12:39:43.008Z,50.24
2019-05-13T12:40:42.650Z,50.45
2019-05-13T12:41:42.073Z,50.52
2019-05-13T12:42:46.097Z,51.03
2019-05-13T12:43:42.628Z,49.91
2019-05-13T12:44:59.721Z,50.93
2019-05-13T12:45:43.207Z,50.32
2019-05-13T12:46:41.490Z,49.02
2019-05-13T12:47:43.368Z,49.25
2019-05-13T12:48:39.691Z,49.86
2019-05-13T12:49:43.450Z,49.55
2019-05-13T12:50:42.486Z,50.06
2019-05-13T12:51:43.932Z,50.55
2019-05-13T12:52:42.897Z,49.53
2019-05-13T12:53:43.246Z,48.72
2019-05-13T12:54:43.096Z,49.61